Flight Track Log - Related Links

Times and Time Zones

All times are in EDT time to prevent confusion due to time zone crossing. See the N789EX flight status page for this flight to view local times or setup timezone preferences in your user account.

Time Position Orientation Groundspeed Altitude Reporting Facility
EDT Latitude Longitude Course Direction KTS MPH feet Rate Location/Type
Wed 12:16:07 47.4690 -122.2450 142° Southeast 238 274 3,700  Level FlightAware ADS-B
Wed 12:17:07 47.4790 -122.1530 81° East 260 299 7,500 3,796 Climbing FlightAware ADS-B
Wed 12:17:45 47.5040 -122.0930 58° Northeast 269 310 9,900 3,895 Climbing FlightAware ADS-B
Wed 12:18:04 47.5240 -122.0810 22° Northeast 253 291 11,200 2,384 Climbing FlightAware ADS-B
Wed 12:18:58 47.5850 -122.1000 348° North 261 300 12,800 1,021 Climbing FlightAware ADS-B
Wed 12:19:38 47.6290 -122.1150 347° North 259 298 12,800 160 Level FlightAware ADS-B
Wed 12:20:13 47.6710 -122.1370 341° North 263 303 13,000 571 Climbing FlightAware ADS-B
Wed 12:20:41 47.7030 -122.1570 337° Northwest 285 328 13,400 1,371 Climbing FlightAware ADS-B
Wed 12:21:23 47.7580 -122.1890 339° North 336 387 14,600 2,197 Climbing FlightAware ADS-B
Wed 12:21:52 47.8030 -122.2160 338° Northwest 353 406 16,000 3,493 Climbing FlightAware ADS-B
Wed 12:22:30 47.8640 -122.2530 338° Northwest 353 406 18,500 3,553 Climbing FlightAware ADS-B
Wed 12:23:08 47.9230 -122.2800 343° North 366 421 20,500 2,864 Climbing FlightAware ADS-B
Wed 12:23:58 48.0040 -122.2310 22° Northeast 393 452 22,700 2,250 Climbing FlightAware ADS-B
Wed 12:25:08 48.1030 -122.1190 37° Northeast 432 497 25,000 1,533 Climbing FlightAware ADS-B
Wed 12:25:28 48.1140 -122.0520 76° East 442 509 25,000  Level FlightAware ADS-B
Wed 12:26:13 48.1080 -121.9150 94° East 445 512 25,000 75 Level FlightAware ADS-B
Wed 12:26:48 48.1040 -121.8080 93° East 437 503 25,100 -63 Climbing FlightAware ADS-B
Wed 12:27:48 48.0950 -121.6260 94° East 443 510 24,900 -47 Descending FlightAware ADS-B
Wed 12:28:55 48.0870 -121.4240 93° East 443 510 25,000 57 Climbing FlightAware ADS-B
Wed 12:29:34 48.0810 -121.3040 94° East 441 507 25,000 -78 Level FlightAware ADS-B
Wed 12:30:12 48.0750 -121.1880 94° East 444 511 24,900 -81 Descending FlightAware ADS-B
Wed 12:30:48 48.0700 -121.0810 94° East 431 496 24,900 -83 Level FlightAware ADS-B
Wed 12:31:24 48.0650 -120.9770 94° East 434 499 24,800 -83 Descending FlightAware ADS-B
Wed 12:32:00 48.0590 -120.8650 95° East 437 503 24,800 91 Level FlightAware ADS-B
Wed 12:32:30 48.0550 -120.7760 94° East 440 506 24,900 83 Climbing FlightAware ADS-B
Wed 12:33:12 48.0490 -120.6460 94° East 437 503 24,900 65 Level FlightAware ADS-B
Wed 12:34:02 48.0410 -120.4960 95° East 435 501 25,000 70 Climbing FlightAware ADS-B
Wed 12:34:38 48.0340 -120.3900 96° East 436 502 25,000 -88 Level FlightAware ADS-B
Wed 12:35:10 48.0280 -120.2940 95° East 439 505 24,900 -83 Descending FlightAware ADS-B
Wed 12:35:50 48.0210 -120.1730 95° East 437 503 24,900 83 Level FlightAware ADS-B
Wed 12:36:22 48.0160 -120.0750 94° East 443 510 25,000 174 Climbing FlightAware ADS-B
Wed 12:36:59 48.0100 -119.9650 95° East 441 507 25,100  Climbing FlightAware ADS-B
Wed 12:37:43 48.0020 -119.8310 95° East 440 506 25,000 -88 Descending FlightAware ADS-B
Wed 12:38:07 47.9980 -119.7610 95° East 442 509 25,000  Level FlightAware ADS-B
Wed 12:39:24 47.9830 -119.5380 96° East 441 507 25,000  Level FlightAware ADS-B
Wed 12:40:00 47.9760 -119.4450 96° East 441 507 25,000  Level FlightAware ADS-B
Wed 12:40:48 47.9680 -119.3210 95° East 441 507 25,000  Level FlightAware ADS-B
Wed 12:41:22 47.9620 -119.2340 96° East 441 507 25,000  Level FlightAware ADS-B
Wed 12:42:08 47.9530 -119.1150 96° East 441 507 25,000  Level FlightAware ADS-B
Wed 12:42:44 47.9470 -119.0220 95° East 441 507 25,000  Level FlightAware ADS-B
Wed 12:42:56 47.9440 -118.9920 98° East 441 507 25,000 -91 Level FlightAware ADS-B
Wed 12:43:50 47.9103 -118.7497 98° East 437 503 24,900 -52 Descending Seattle Center
Wed 12:44:52 47.8969 -118.5658 96° East 447 514 24,900 49 Level Seattle Center
Wed 12:45:53 47.8875 -118.3697 94° East 471 542 25,000  Climbing Seattle Center
Wed 12:46:54 47.8747 -118.1753 96° East 473 544 24,900 49 Descending Seattle Center
Wed 12:47:55 47.8592 -117.9831 97° East 469 540 25,100  Climbing Seattle Center
Wed 12:48:56 47.8400 -117.7889 98° East 474 545 24,900 -49 Descending Seattle Center
Wed 12:49:57 47.8167 -117.5947 100° East 476 548 25,000  Climbing Seattle Center
Wed 12:50:58 47.7897 -117.3644 100° East 471 542 24,900  Descending Seattle Center
Wed 12:51:59 47.7767 -117.1731 96° East 460 529 25,000 98 Climbing Seattle Center
Wed 12:53:00 47.7708 -116.9797 92° East 459 528 25,100 49 Climbing Seattle Center
Wed 12:54:02 47.7586 -116.7867 95° East 462 532 25,100 -195 Level Seattle Center
Wed 12:55:03 47.7428 -116.5964 97° East 462 532 24,700 -148 Descending Seattle Center
Wed 12:56:04 47.7222 -116.4064 99° East 464 534 24,800 148 Climbing Seattle Center
Wed 12:57:05 47.7225 -116.2228 90° East 475 547 25,000 98 Climbing Seattle Center
Wed 12:58:06 47.8031 -116.2853 332° Northwest 459 528 25,000 148 Level Seattle Center
Wed 12:59:07 47.7892 -116.4661 264° West 447 514 25,300 393 Climbing Seattle Center
Wed 13:00:08 47.7797 -116.6453 266° West 439 505 25,800 -98 Climbing Seattle Center
Wed 13:01:09 47.7756 -116.8283 268° West 444 511 25,100 -393 Descending Seattle Center
Wed 13:02:10 47.7892 -117.0144 276° West 459 528 25,000 49 Descending Seattle Center
Wed 13:03:11 47.8081 -117.2450 277° West 474 545 25,200 49 Climbing Seattle Center
Wed 13:04:12 47.8250 -117.4342 278° West 471 542 25,100 -49 Descending Seattle Center
Wed 13:05:13 47.8447 -117.6203 279° West 463 533 25,100  Level Seattle Center
Wed 13:06:14 47.8667 -117.8058 280° West 459 528 25,100  Level Seattle Center
Wed 13:07:15 47.8911 -117.9919 281° West 460 529 25,100 -98 Level Seattle Center
Wed 13:08:16 47.9200 -118.1767 283° West 460 529 24,900 -98 Descending Seattle Center
Wed 13:09:17 47.9506 -118.3606 284° West 459 528 24,900  Level Seattle Center
Wed 13:10:18 47.9567 -118.5508 273° West 471 542 24,900 15 Level Seattle Center
Wed 13:16:00 47.8950 -119.6030 273° West 462 532 25,000 16 Climbing FlightAware ADS-B
Wed 13:16:31 47.8290 -119.6240 192° South 467 537 25,000  Level FlightAware ADS-B
Wed 13:17:12 47.7440 -119.6450 189° South 469 540 25,000  Level FlightAware ADS-B
Wed 13:17:40 47.6830 -119.6600 189° South 468 539 25,000  Level FlightAware ADS-B
Wed 13:18:24 47.5900 -119.6830 189° South 467 537 25,000  Level FlightAware ADS-B
Wed 13:18:56 47.5200 -119.7000 189° South 468 539 25,000  Level FlightAware ADS-B
Wed 13:19:56 47.3920 -119.7320 190° South 472 543 25,000  Level FlightAware ADS-B
Wed 13:20:34 47.3100 -119.7520 189° South 485 558 25,000  Level FlightAware ADS-B
Wed 13:21:14 47.2200 -119.7730 189° South 488 562 25,000  Level FlightAware ADS-B
Wed 13:21:47 47.1460 -119.7910 189° South 490 564 25,000  Level FlightAware ADS-B
Wed 13:22:50 47.0020 -119.8220 188° South 523 602 25,000 65 Level FlightAware ADS-B
Wed 13:23:20 46.9280 -119.8030 170° South 533 613 25,100  Climbing FlightAware ADS-B
Wed 13:23:56 46.8470 -119.7530 157° South 535 616 25,000 -269 Descending FlightAware ADS-B
Wed 13:24:27 46.7800 -119.7040 153° Southeast 530 610 24,800  Descending FlightAware ADS-B
Wed 13:25:12 46.7210 -119.5750 124° Southeast 542 624 25,000 237 Climbing FlightAware ADS-B
Wed 13:25:43 46.6840 -119.4670 117° Southeast 546 628 25,100 281 Climbing FlightAware ADS-B
Wed 13:26:16 46.6460 -119.3590 117° Southeast 547 629 25,300 179 Climbing FlightAware ADS-B
Wed 13:26:50 46.6070 -119.2470 117° Southeast 546 628 25,300 -65 Level FlightAware ADS-B
Wed 13:27:49 46.5380 -119.0590 118° Southeast 548 631 25,200 -191 Descending FlightAware ADS-B
Wed 13:28:24 46.4930 -118.9450 120° Southeast 544 626 25,000 -158 Descending FlightAware ADS-B
Wed 13:29:05 46.4420 -118.8180 120° Southeast 538 619 25,000 423 Level FlightAware ADS-B
Wed 13:29:35 46.4020 -118.7240 122° Southeast 551 634 25,500 286 Climbing FlightAware ADS-B
Wed 13:30:08 46.3590 -118.6260 122° Southeast 550 633 25,300 -381 Descending FlightAware ADS-B
Wed 13:30:38 46.3150 -118.5280 123° Southeast 549 632 25,100 -273 Descending FlightAware ADS-B
Wed 13:31:36 46.2430 -118.3520 121° Southeast 542 624 24,900 -176 Descending FlightAware ADS-B
Wed 13:32:20 46.1950 -118.2160 117° Southeast 526 605 24,800 -56 Descending FlightAware ADS-B
Wed 13:33:23 46.1240 -118.0100 116° Southeast 542 624 24,800  Level FlightAware ADS-B
Wed 13:33:36 46.1100 -117.9700 117° Southeast 542 624 24,800  Level FlightAware ADS-B
Wed 13:34:32 46.0480 -117.7870 116° Southeast 541 623 24,800 67 Level FlightAware ADS-B
Wed 13:35:05 46.0110 -117.6790 116° Southeast 542 624 24,900 174 Climbing FlightAware ADS-B
Wed 13:35:41 45.9720 -117.5610 115° Southeast 544 626 25,000 86 Climbing FlightAware ADS-B
Wed 13:36:15 45.9370 -117.4570 116° Southeast 544 626 25,000  Level FlightAware ADS-B
Wed 13:36:44 45.9110 -117.3770 115° Southeast 544 626 25,000  Level FlightAware ADS-B
Wed 13:37:56 45.8460 -117.1760 115° Southeast 544 626 25,000  Level FlightAware ADS-B
Wed 13:38:30 45.8150 -117.0820 115° Southeast 544 626 25,000  Level FlightAware ADS-B
Wed 13:39:08 45.7810 -116.9760 115° Southeast 544 626 25,000  Level FlightAware ADS-B
Wed 13:39:32 45.7590 -116.9090 115° Southeast 544 626 25,000  Level FlightAware ADS-B
Wed 13:40:09 45.7250 -116.8060 115° Southeast 544 626 25,000  Level FlightAware ADS-B
Wed 13:43:31 46.2150 -117.9010 303° West 482 555 25,000  Level FlightAware ADS-B
Wed 13:44:38 46.2660 -118.0930 291° West 421 484 25,000 -55 Level FlightAware ADS-B
Wed 13:45:20 46.2940 -118.1950 292° West 402 463 24,900 -65 Descending FlightAware ADS-B
Wed 13:46:10 46.3220 -118.3020 291° West 402 463 24,900  Level FlightAware ADS-B
Wed 13:46:47 46.3430 -118.3810 291° West 402 463 24,900 -7,385 Level FlightAware ADS-B
Wed 13:47:28 46.3830 -118.4940 297° West 352 405 15,300 -9,247 Descending FlightAware ADS-B
Wed 13:48:12 46.4160 -118.5780 300° West 348 400 11,800 -2,211 Descending FlightAware ADS-B
Wed 13:49:03 46.4500 -118.6670 299° West 348 400 11,800  Level FlightAware ADS-B
Wed 13:49:52 46.4830 -118.7520 299° West 348 400 11,800  Level FlightAware ADS-B
Wed 13:50:04 46.4910 -118.7730 299° West 348 400 11,800 -765 Level FlightAware ADS-B
Wed 13:52:21 46.6210 -119.1000 300° West 377 434 9,900 -708 Descending FlightAware ADS-B
Wed 13:52:45 46.6390 -119.1450 300° West 377 434 9,900  Level FlightAware ADS-B
Wed 13:53:09 46.6570 -119.1890 301° West 377 434 9,900  Level FlightAware ADS-B
Wed 13:53:34 46.6750 -119.2360 299° West 377 434 9,900  Level FlightAware ADS-B
Wed 13:55:01 46.7706 -119.4406 299° West 376 433 9,900  Level Seattle Center
Wed 13:56:02 46.8400 -119.5547 312° West 376 433 9,900 -49 Level Seattle Center
Wed 13:57:03 46.9158 -119.6517 319° Northwest 364 419 9,800 49 Descending Seattle Center
Wed 13:58:04 46.9406 -119.5436 71° East 397 457 10,000 144 Climbing Seattle Center
Wed 13:59:08 46.8536 -119.3892 129° Southeast 410 472 10,100 48 Climbing Seattle Center
Wed 14:00:09 46.7789 -119.2669 132° Southeast 407 468 10,100 49 Level Seattle Center
Wed 14:01:10 46.7008 -119.1506 134° Southeast 405 466 10,200  Climbing Seattle Center
Wed 14:02:11 46.6186 -119.0403 137° Southeast 404 465 10,100 -49 Descending Seattle Center
Wed 14:03:12 46.5506 -118.9106 127° Southeast 406 467 10,100 -49 Level Seattle Center
Wed 14:04:13 46.4881 -118.7764 124° Southeast 403 464 10,000 -49 Descending Seattle Center
Wed 14:05:14 46.4261 -118.6411 124° Southeast 404 465 10,000 49 Level Seattle Center
Wed 14:06:15 46.3653 -118.5044 123° Southeast 406 467 10,100 49 Climbing Seattle Center
Wed 14:07:16 46.3103 -118.3636 119° Southeast 405 466 10,100 -49 Level Seattle Center
Wed 14:08:17 46.2597 -118.2178 117° Southeast 407 468 10,000 49 Descending Seattle Center
Wed 14:09:18 46.2106 -118.0736 116° Southeast 403 464 10,200  Climbing Seattle Center
Wed 14:10:19 46.1517 -117.9006 116° Southeast 405 466 10,000 -197 Descending Seattle Center
Wed 14:11:20 46.2289 -117.8492 25° Northeast 389 448 9,800 -148 Descending Seattle Center
Wed 14:12:21 46.3128 -117.9375 324° Northwest 381 438 9,700 49 Descending Seattle Center
Wed 14:13:22 46.3842 -118.0544 312° West 390 449 9,900 49 Climbing Seattle Center
Wed 14:14:23 46.4414 -118.1942 301° West 401 461 9,800  Descending Seattle Center
Wed 14:15:24 46.4972 -118.3350 300° West 403 464 9,900 49 Climbing Seattle Center
Wed 14:16:25 46.5514 -118.4772 299° West 404 465 9,900 49 Level Seattle Center
Wed 14:17:26 46.6078 -118.6192 300° West 404 465 10,000 98 Climbing Seattle Center
Wed 14:18:27 46.6631 -118.7628 299° West 409 471 10,100 98 Climbing Seattle Center
Wed 14:19:28 46.7139 -118.9097 297° West 409 471 10,200  Climbing Seattle Center
Wed 14:20:29 46.7683 -119.0817 295° West 406 467 10,100 -98 Descending Seattle Center
Wed 14:21:30 46.8067 -119.2111 293° West 407 468 10,000 -98 Descending Seattle Center
Wed 14:22:31 46.8572 -119.3497 298° West 386 444 9,900  Descending Seattle Center
Wed 14:23:32 46.9458 -119.3028 20° North 389 448 10,000 49 Climbing Seattle Center
Wed 14:24:33 46.8625 -119.1889 137° Southeast 423 487 10,000 49 Level Seattle Center
Wed 14:25:34 46.7644 -119.0875 145° Southeast 431 496 10,100 49 Climbing Seattle Center
Wed 14:26:35 46.6669 -118.9894 145° Southeast 431 496 10,100  Level Seattle Center
Wed 14:27:36 46.5569 -118.8867 147° Southeast 434 499 10,100 -49 Level Seattle Center
Wed 14:28:37 46.4797 -118.7756 135° Southeast 431 496 10,000 -49 Descending Seattle Center
Wed 14:29:38 46.4181 -118.6283 121° Southeast 430 495 10,000 -49 Level Seattle Center
Wed 14:30:39 46.3603 -118.4772 119° Southeast 431 496 9,900 -49 Descending Seattle Center
Wed 14:31:40 46.3081 -118.3200 116° Southeast 435 501 9,900  Level Seattle Center
Wed 14:32:41 46.2611 -118.1622 113° Southeast 431 496 9,900  Level Seattle Center
Wed 14:33:42 46.1606 -118.1225 165° South 422 486 9,900  Level Seattle Center
Wed 14:39:10 46.4780 -118.8800 165° South 405 466 9,900  Level FlightAware ADS-B
Wed 14:40:04 46.5290 -118.9880 304° West 405 466 9,900 71 Level FlightAware ADS-B
Wed 14:40:35 46.5690 -119.0710 305° West 405 466 10,000 188 Climbing FlightAware ADS-B
Wed 14:41:08 46.6050 -119.1440 306° West 405 466 10,100 86 Climbing FlightAware ADS-B
Wed 14:41:45 46.6380 -119.2150 304° West 405 466 10,100 270 Level FlightAware ADS-B
Wed 14:42:37 46.6970 -119.3380 305° West 388 447 10,500 190 Climbing FlightAware ADS-B
Wed 14:43:51 46.7580 -119.4770 303° West 388 447 10,500  Level FlightAware ADS-B
Wed 14:44:28 46.7890 -119.5460 303° West 388 447 10,500 -244 Level FlightAware ADS-B
Wed 14:45:54 46.7028 -119.4142 303° West 247 284 10,000 -857 Descending Seattle Center
Wed 14:46:55 46.7567 -119.3717 28° Northeast 224 258 8,400 -1,623 Descending Seattle Center
Wed 14:47:56 46.8217 -119.3567 North 229 264 6,700 -1,561 Descending Seattle Center
Wed 14:48:58 46.8819 -119.3458 North 222 255 5,200 -1,561 Descending Seattle Center
Wed 14:49:59 46.9436 -119.3328 North 227 261 3,500 -1,082 Descending Seattle Center
Wed 14:51:00 47.0064 -119.3197 North 227 261 3,000 -393 Descending Seattle Center
Wed 14:52:01 47.0672 -119.3025 11° North 214 246 2,700 -295 Descending Seattle Center
Wed 14:53:02 47.1217 -119.2858 12° North 179 206 2,400 -443 Descending Seattle Center
Wed 14:54:03 47.1628 -119.2961 350° North 154 177 1,800 -639 Descending Seattle Center
Wed 14:55:04 47.2008 -119.3153 341° North 147 169 1,100 -295 Descending Seattle Center
Wed 14:56:05 47.2328 -119.3311 341° North 147 169 1,200 98 Climbing Seattle Center
Wed 14:58:00 47.2758 -119.7160 279° West  Level Estimated
Wed 15:05:00 47.4220 -121.1270 279° West  Level Estimated
Wed 15:06:00 47.4415 -121.3292 278° West  Level Estimated
Wed 15:07:00 47.4606 -121.5315 278° West  Level Estimated
Wed 15:08:00 47.4794 -121.7340 278° West  Level Estimated
Wed 15:09:00 47.4978 -121.9367 278° West  Level Estimated
Wed 15:10:00 47.5158 -122.1394 278° West  Level Estimated
Wed 15:11:00 47.5300 -122.3020 277° West  Level Estimated
Wed 15:12:00 47.5300 -122.3020 270° West  Level Estimated
Wed 15:13:00 47.5300 -122.3020 270° West  Level Estimated
Wed 15:14:00 47.5300 -122.3020 270° West  Level Estimated
Wed 15:15:00 47.5300 -122.3020 270° West  Level Estimated
Wed 15:16:00 47.5300 -122.3020 270° West  Level Estimated
Wed 15:17:00 47.5300 -122.3020 270° West  Level Estimated
Wed 15:18:00 47.5300 -122.3020 270° West  Level Estimated
Wed 15:19:00 47.5300 -122.3020 270° West  Level Estimated
Wed 15:20:00 47.5300 -122.3020 270° West  Level Estimated
Wed 15:21:00 47.5300 -122.3020 270° West  Level Estimated
Wed 15:22:00 47.5300 -122.3020 270° West  Level Estimated
Wed 15:23:00 47.5300 -122.3020 270° West  Level Estimated
Wed 15:24:00 47.5300 -122.3020 270° West  Level Estimated
Wed 15:25:00 47.5300 -122.3020 270° West  Level Estimated
Wed 15:26:00 47.5300 -122.3020 270° West  Level Estimated
Wed 15:27:00 47.5300 -122.3020 270° West  Level Estimated
Wed 15:28:00 47.5300 -122.3020 270° West  Level Estimated
Wed 15:29:00 47.5300 -122.3020 270° West  Level Estimated
Wed 15:30:00 47.5300 -122.3020 270° West  Level Estimated
Wed 15:31:00 47.5300 -122.3020 270° West  Level Estimated
Wed 15:32:00 47.5300 -122.3020 270° West  Level Estimated
Wed 15:33:00 47.5300 -122.3020 270° West  Level Estimated
Wed 15:34:00 47.5300 -122.3020 270° West  Level Estimated
Wed 15:35:00 47.5300 -122.3020 270° West  Level Estimated
Wed 15:36:00 47.5300 -122.3020 270° West  Level Estimated
Wed 15:37:00 47.5300 -122.3020 270° West  Level Estimated
Wed 15:38:00 47.5300 -122.3020 270° West  Level Estimated

Login

Don't have an account? Register now (free) for customized features, flight alerts, and more!